This is the latest recevied weather packets stored in our database for station/object K7OLI-13. If no packets are shown the sender has not sent any weather packets the latest 10 day(s).
| Time | Temp. | Humidity | Pressure | Rain* | Wind** | Luminosity | Snow |
|---|---|---|---|---|---|---|---|
| 1777728043 | 9.44° C | 90% | 1013.1 hPa | 0 mm | - | - | - |
| 1777727430 | 9.44° C | 90% | 1013.1 hPa | 0 mm | - | - | - |
| 1777723230 | 9.44° C | 92% | 1012.1 hPa | 0 mm | - | - | - |
| 1777720825 | 9.44° C | 92% | 1012.2 hPa | 0 mm | - | - | - |
| 1777716625 | 10° C | 90% | 1012.2 hPa | 0 mm | - | - | - |
| 1777716033 | 10.56° C | 90% | 1012.2 hPa | 0 mm | - | - | - |
| 1777713037 | 10.56° C | 89% | 1013 hPa | 0 mm | - | - | - |
| 1777708837 | 10.56° C | 88% | 1013.1 hPa | 0 mm | - | - | - |
| 1777705821 | 11.11° C | 86% | 1013.1 hPa | 0 mm | - | - | - |
| 1777705229 | 11.11° C | 86% | 1013.1 hPa | 0 mm | - | - | - |
| 1777701026 | 11.67° C | 85% | 1013.1 hPa | 0 mm | - | - | - |
| 1777699824 | 11.67° C | 85% | 1013.1 hPa | 0 mm | - | - | - |
| 1777693829 | 12.78° C | 83% | 1012.1 hPa | 0 mm | - | - | - |
| 1777692646 | 12.78° C | 82% | 1012.1 hPa | 0 mm | - | - | - |
| 1777688424 | 15° C | 75% | 1011.1 hPa | 0 mm | - | - | - |
| 1777684223 | 17.78° C | 67% | 1011.1 hPa | 0 mm | - | - | - |
| 1777681224 | 20° C | 62% | 1011.1 hPa | 0 mm | - | - | - |
| 1777680632 | 20.56° C | 60% | 1011.2 hPa | 0 mm | - | - | - |
| 1777678821 | 22.22° C | 57% | 1011.2 hPa | 0 mm | - | - | - |
| 1777678222 | 22.22° C | 54% | 1011.2 hPa | 0 mm | - | - | - |
| 1777676432 | 23.89° C | 53% | 1011.2 hPa | 0 mm | - | - | - |
| 1777671621 | 22.22° C | 55% | 1012.2 hPa | 0 mm | - | - | - |
| 1777667420 | 21.67° C | 57% | 1013.2 hPa | 0 mm | - | - | - |
| 1777665626 | 20.56° C | 60% | 1013.2 hPa | 0 mm | - | - | - |
| 1777665034 | 20.56° C | 60% | 1014.2 hPa | 0 mm | - | - | - |
* Rain latest hour (hover to see other rain measurements)
** Current wind speed in m/s (hover to see current wind gust speed)